Altamont, North Carolina
Current Conditions -  °F | °C
As of 1:55 AM on Friday 19 Dec 2014 (Local Time) from KTNB Reporting Station
Overcast Overcast  
Wind Chill: 34°   Ceiling: 2500
Heat Index: 34°   Visibility: 10mi
Dew Point: 22°   Wind: 3mph
Humidity: 60%   Direction: 320°NW
Pressure: 30.06"   Gusts: NA
Location:  36.0227°N, 81.9499°W
Report Text: KTNB 190655Z AUTO 32003KT 10SM OVC025 01/M06 A3006 RMK AO2 T00131056
Loading
Personal Weather Stations






























Interactive Weather Map New forecast layout! Learn more

10-Day Weather Forecast

Advertisements
Track Severe Weather on mobile